createdAt,value
2022-08-11T00:05:01.383Z,21.60
2022-08-11T00:10:03.614Z,21.50
2022-08-11T00:15:06.176Z,21.50
2022-08-11T00:20:15.772Z,21.50
2022-08-11T00:25:20.704Z,21.40
2022-08-11T00:30:22.683Z,21.40
2022-08-11T00:35:51.126Z,21.20
2022-08-11T00:41:09.755Z,21.70
2022-08-11T00:46:27.240Z,21.00
2022-08-11T00:52:04.993Z,21.00
2022-08-11T00:57:37.655Z,20.90
2022-08-11T01:02:47.360Z,20.70
2022-08-11T01:08:20.020Z,20.50
2022-08-11T01:13:59.042Z,20.40
2022-08-11T01:20:45.325Z,20.30
2022-08-11T01:25:27.343Z,20.20
2022-08-11T01:31:16.701Z,20.00
2022-08-11T01:36:31.149Z,19.90
2022-08-11T01:42:24.165Z,20.10
2022-08-11T01:47:54.254Z,19.60
2022-08-11T01:53:15.204Z,19.40
2022-08-11T01:58:43.593Z,19.40
2022-08-11T02:03:51.424Z,19.30
2022-08-11T02:09:25.764Z,19.30
2022-08-11T02:15:07.204Z,19.00
2022-08-11T02:21:06.146Z,18.90
2022-08-11T02:26:28.088Z,19.00
2022-08-11T02:32:15.632Z,19.40
2022-08-11T02:37:24.782Z,18.80
2022-08-11T02:42:32.438Z,18.80
2022-08-11T02:48:23.580Z,18.80
2022-08-11T02:53:58.289Z,18.90
2022-08-11T02:59:50.955Z,18.60
2022-08-11T03:04:58.520Z,18.40
2022-08-11T03:10:12.989Z,18.40
2022-08-11T03:15:49.547Z,18.30
2022-08-11T03:21:21.855Z,18.20
2022-08-11T03:27:04.965Z,18.10
2022-08-11T03:32:31.084Z,18.00
2022-08-11T03:37:56.553Z,17.90
2022-08-11T03:43:07.728Z,17.80
2022-08-11T03:48:29.920Z,17.70
2022-08-11T03:54:03.805Z,17.60
2022-08-11T03:59:17.857Z,17.50
2022-08-11T04:04:51.265Z,17.40
2022-08-11T04:10:23.391Z,17.40
2022-08-11T04:16:11.788Z,17.40
2022-08-11T04:21:39.561Z,17.40
2022-08-11T04:26:56.055Z,17.40
2022-08-11T04:32:19.587Z,17.40
2022-08-11T04:37:54.732Z,17.40
2022-08-11T04:43:27.433Z,17.30
2022-08-11T04:49:12.235Z,17.20
2022-08-11T04:55:16.819Z,17.50
2022-08-11T05:00:37.851Z,17.20
2022-08-11T05:06:14.265Z,17.10
2022-08-11T05:11:57.902Z,17.20
2022-08-11T05:17:31.475Z,17.20
2022-08-11T05:22:53.408Z,17.30
2022-08-11T05:28:32.056Z,17.40
2022-08-11T05:33:57.631Z,17.50
2022-08-11T05:39:33.895Z,17.60
2022-08-11T05:44:58.131Z,17.70
2022-08-11T05:50:18.447Z,17.90
2022-08-11T05:56:02.133Z,18.00
2022-08-11T06:01:07.138Z,18.20
2022-08-11T06:06:10.589Z,18.50
2022-08-11T06:11:14.040Z,19.70
2022-08-11T06:16:23.139Z,18.80
2022-08-11T06:21:25.363Z,19.10
2022-08-11T06:26:27.657Z,20.20
2022-08-11T06:31:31.785Z,19.50
2022-08-11T06:36:58.280Z,19.90
2022-08-11T06:42:07.998Z,19.90
2022-08-11T06:47:16.322Z,20.20
2022-08-11T06:52:34.943Z,20.50
2022-08-11T06:58:00.020Z,20.80
2022-08-11T07:03:09.306Z,21.00
2022-08-11T07:09:10.418Z,21.40
2022-08-11T07:14:38.308Z,21.70
2022-08-11T07:20:02.170Z,22.00
2022-08-11T07:25:35.151Z,22.40
2022-08-11T07:30:40.829Z,22.40
2022-08-11T07:35:45.912Z,22.60
2022-08-11T07:40:48.394Z,22.80
2022-08-11T07:46:09.123Z,23.00
2022-08-11T07:51:29.855Z,23.20
2022-08-11T07:56:54.784Z,23.70
2022-08-11T08:02:18.270Z,23.70
2022-08-11T08:07:40.675Z,23.90
2022-08-11T08:13:01.443Z,23.90
2022-08-11T08:18:09.669Z,24.00
2022-08-11T08:23:34.593Z,24.20
2022-08-11T08:28:37.050Z,24.40
2022-08-11T08:33:42.238Z,24.40
2022-08-11T08:38:54.215Z,24.70
2022-08-11T08:44:20.670Z,24.90
2022-08-11T08:49:35.408Z,25.10
2022-08-11T08:54:44.900Z,25.30
2022-08-11T08:59:51.495Z,25.40
2022-08-11T09:04:53.966Z,25.70
2022-08-11T09:09:59.215Z,25.90
2022-08-11T09:15:05.251Z,26.10
2022-08-11T09:20:20.462Z,26.30
2022-08-11T09:25:44.758Z,26.60
2022-08-11T09:30:53.770Z,26.90
2022-08-11T09:35:57.346Z,27.50
2022-08-11T09:41:03.003Z,27.20
2022-08-11T09:46:06.910Z,27.40
2022-08-11T09:51:10.855Z,27.60
2022-08-11T09:56:53.247Z,28.10
2022-08-11T10:01:59.233Z,28.00
2022-08-11T10:07:05.340Z,28.00
2022-08-11T10:12:30.821Z,28.00
2022-08-11T10:17:38.488Z,27.90
2022-08-11T10:23:01.344Z,28.20
2022-08-11T10:28:28.619Z,29.00
2022-08-11T10:33:59.134Z,29.30
2022-08-11T10:39:03.761Z,29.10
2022-08-11T10:44:09.176Z,29.70
2022-08-11T10:49:11.353Z,29.70
2022-08-11T10:54:34.694Z,30.30
2022-08-11T10:59:36.816Z,30.30
2022-08-11T11:04:53.085Z,30.50
2022-08-11T11:10:04.438Z,30.10
2022-08-11T11:15:26.133Z,30.50
2022-08-11T11:20:36.781Z,30.60
2022-08-11T11:26:27.327Z,31.10
2022-08-11T11:31:32.652Z,31.10
2022-08-11T11:36:53.612Z,31.40
2022-08-11T11:41:58.248Z,31.40
2022-08-11T11:47:01.854Z,31.80
2022-08-11T11:52:04.805Z,31.90
2022-08-11T11:57:25.772Z,31.80
2022-08-11T12:02:28.201Z,32.00
2022-08-11T12:07:56.844Z,32.20
2022-08-11T12:13:25.584Z,32.40
2022-08-11T12:18:27.565Z,32.50
2022-08-11T12:23:49.178Z,32.50
2022-08-11T12:28:51.778Z,32.60
2022-08-11T12:33:56.266Z,32.50
2022-08-11T12:38:59.767Z,32.60
2022-08-11T12:44:46.073Z,32.80
2022-08-11T12:50:23.202Z,32.90
2022-08-11T12:56:07.579Z,32.70
2022-08-11T13:01:26.432Z,32.70
2022-08-11T13:06:29.506Z,32.60
2022-08-11T13:11:55.528Z,32.90
2022-08-11T13:17:19.232Z,32.80
2022-08-11T13:22:24.323Z,32.90
2022-08-11T13:27:26.664Z,32.80
2022-08-11T13:32:29.674Z,32.60
2022-08-11T13:38:17.702Z,32.90
2022-08-11T13:42:58.943Z,33.10
2022-08-11T13:48:03.392Z,33.20
2022-08-11T13:53:05.612Z,33.40
2022-08-11T13:58:20.450Z,33.00
2022-08-11T14:04:30.441Z,33.20
2022-08-11T14:08:55.800Z,33.20
2022-08-11T14:13:58.705Z,33.40
2022-08-11T14:19:08.977Z,33.90
2022-08-11T14:24:13.010Z,34.20
2022-08-11T14:29:16.133Z,34.50
2022-08-11T14:34:23.485Z,34.80
2022-08-11T14:39:30.836Z,34.80
2022-08-11T14:44:54.171Z,35.00
2022-08-11T14:50:11.107Z,35.40
2022-08-11T14:55:33.865Z,35.40
2022-08-11T15:00:36.531Z,35.40
2022-08-11T15:05:56.494Z,35.60
2022-08-11T15:10:59.853Z,35.80
2022-08-11T15:16:20.533Z,35.70
2022-08-11T15:21:41.109Z,35.60
2022-08-11T15:27:02.248Z,35.70
2022-08-11T15:32:19.586Z,35.70
2022-08-11T15:37:27.921Z,35.80
2022-08-11T15:42:49.954Z,35.40
2022-08-11T15:48:05.813Z,35.50
2022-08-11T15:53:25.557Z,35.50
2022-08-11T15:59:41.234Z,35.50
2022-08-11T16:04:18.909Z,35.30
2022-08-11T16:09:27.739Z,35.10
2022-08-11T16:14:56.567Z,34.80
2022-08-11T16:19:59.764Z,35.40
2022-08-11T16:27:03.322Z,34.80
2022-08-11T16:30:29.381Z,34.50
2022-08-11T16:35:54.968Z,35.30
2022-08-11T16:40:59.824Z,34.10
2022-08-11T16:46:23.219Z,34.70
2022-08-11T16:51:25.067Z,34.20
2022-08-11T16:56:43.560Z,34.20
2022-08-11T17:01:52.956Z,34.00
2022-08-11T17:07:24.025Z,34.00
2022-08-11T17:12:59.209Z,34.10
2022-08-11T17:18:03.607Z,34.20
2022-08-11T17:23:26.426Z,34.90
2022-08-11T17:28:29.759Z,33.90
2022-08-11T17:33:51.853Z,33.50
2022-08-11T17:38:54.148Z,33.40
2022-08-11T17:44:15.415Z,33.20
2022-08-11T17:49:23.156Z,33.20
2022-08-11T17:54:44.401Z,33.20
2022-08-11T17:59:55.289Z,32.90
2022-08-11T18:04:57.911Z,32.60
2022-08-11T18:10:20.074Z,32.00
2022-08-11T18:15:40.560Z,31.60
2022-08-11T18:21:16.548Z,31.30
2022-08-11T18:26:42.304Z,30.60
2022-08-11T18:32:07.114Z,30.70
2022-08-11T18:37:31.990Z,30.10
2022-08-11T18:42:53.468Z,29.70
2022-08-11T18:48:23.221Z,29.50
2022-08-11T18:53:49.937Z,29.10
2022-08-11T18:59:17.901Z,29.00
2022-08-11T19:04:39.452Z,28.30
2022-08-11T19:10:02.170Z,28.20
2022-08-11T19:15:24.343Z,28.00
2022-08-11T19:20:48.056Z,28.00
2022-08-11T19:26:09.080Z,28.80
2022-08-11T19:31:30.328Z,26.80
2022-08-11T19:36:54.564Z,27.00
2022-08-11T19:42:17.545Z,26.90
2022-08-11T19:47:39.537Z,26.70
2022-08-11T19:53:00.916Z,26.50
2022-08-11T19:58:22.457Z,26.30
2022-08-11T20:03:43.071Z,26.50
2022-08-11T20:09:05.485Z,26.00
2022-08-11T20:14:28.067Z,26.20
2022-08-11T20:19:55.633Z,25.70
2022-08-11T20:25:16.909Z,25.70
2022-08-11T20:30:38.092Z,25.40
2022-08-11T20:35:58.479Z,25.10
2022-08-11T20:41:20.643Z,25.50
2022-08-11T20:46:44.157Z,25.30
2022-08-11T20:52:06.047Z,25.20
2022-08-11T20:57:35.527Z,25.00
2022-08-11T21:03:08.838Z,24.90
2022-08-11T21:08:30.791Z,24.70
2022-08-11T21:13:57.762Z,24.60
2022-08-11T21:19:55.156Z,24.60
2022-08-11T21:25:12.517Z,24.50
2022-08-11T21:30:33.090Z,24.30
2022-08-11T21:35:55.213Z,24.20
2022-08-11T21:41:17.307Z,24.10
2022-08-11T21:46:41.182Z,24.00
2022-08-11T21:52:01.667Z,23.90
2022-08-11T21:57:23.823Z,24.00
2022-08-11T22:02:50.922Z,23.80
2022-08-11T22:08:14.210Z,23.60
2022-08-11T22:13:34.511Z,23.60
2022-08-11T22:18:55.932Z,23.50
2022-08-11T22:24:18.343Z,23.50
2022-08-11T22:29:51.460Z,23.40
2022-08-11T22:35:13.279Z,23.20
2022-08-11T22:40:33.843Z,23.30
2022-08-11T22:45:54.144Z,23.10
2022-08-11T22:51:17.385Z,23.00
2022-08-11T22:56:38.838Z,22.80
2022-08-11T23:02:00.767Z,22.90
2022-08-11T23:07:50.076Z,22.80
2022-08-11T23:13:03.128Z,22.90
2022-08-11T23:18:24.706Z,22.60
2022-08-11T23:23:47.542Z,22.70
2022-08-11T23:29:08.092Z,22.30
2022-08-11T23:35:04.882Z,22.20
2022-08-11T23:40:17.934Z,22.20
2022-08-11T23:45:41.517Z,21.90
2022-08-11T23:51:03.754Z,21.80
2022-08-11T23:56:24.827Z,21.70
